createdAt,value
2023-03-13T00:01:41.680Z,0.91
2023-03-13T00:07:05.326Z,0.94
2023-03-13T00:12:27.709Z,0.94
2023-03-13T00:17:49.946Z,0.96
2023-03-13T00:23:12.394Z,1.00
2023-03-13T00:28:35.753Z,1.04
2023-03-13T00:34:01.865Z,1.06
2023-03-13T00:39:25.316Z,1.06
2023-03-13T00:44:48.073Z,1.03
2023-03-13T00:50:10.452Z,1.03
2023-03-13T00:55:32.840Z,1.08
2023-03-13T01:00:55.044Z,1.12
2023-03-13T01:06:22.331Z,1.11
2023-03-13T01:11:48.250Z,1.15
2023-03-13T01:17:10.741Z,1.14
2023-03-13T01:22:33.144Z,1.15
2023-03-13T01:27:55.601Z,1.19
2023-03-13T01:33:18.328Z,1.16
2023-03-13T01:38:41.095Z,1.16
2023-03-13T01:44:04.393Z,1.12
2023-03-13T01:49:41.997Z,1.10
2023-03-13T01:55:16.718Z,1.05
2023-03-13T02:00:43.043Z,1.05
2023-03-13T02:06:08.394Z,1.03
2023-03-13T02:11:54.893Z,1.12
2023-03-13T02:17:18.196Z,1.00
2023-03-13T02:22:57.307Z,0.96
2023-03-13T02:28:24.052Z,0.90
2023-03-13T02:33:49.989Z,0.84
2023-03-13T02:39:18.562Z,0.81
2023-03-13T02:44:44.815Z,0.79
2023-03-13T02:50:07.074Z,0.79
2023-03-13T02:55:45.857Z,0.78
2023-03-13T03:01:08.660Z,0.76
2023-03-13T03:06:31.685Z,0.77
2023-03-13T03:11:54.276Z,0.78
2023-03-13T03:17:16.941Z,0.81
2023-03-13T03:22:40.929Z,0.83
2023-03-13T03:28:03.175Z,0.86
2023-03-13T03:33:25.367Z,0.88
2023-03-13T03:38:48.320Z,0.88
2023-03-13T03:44:11.488Z,0.92
2023-03-13T03:49:34.036Z,0.92
2023-03-13T03:54:56.682Z,0.91
2023-03-13T04:00:22.568Z,0.91
2023-03-13T04:05:45.088Z,0.90
2023-03-13T04:11:07.435Z,0.91
2023-03-13T04:16:30.548Z,0.93
2023-03-13T04:21:52.841Z,0.94
2023-03-13T04:27:15.084Z,0.96
2023-03-13T04:32:37.464Z,0.97
2023-03-13T04:38:01.498Z,0.98
2023-03-13T04:43:24.354Z,1.02
2023-03-13T04:48:47.331Z,1.03
2023-03-13T04:54:09.677Z,1.07
2023-03-13T04:59:33.008Z,1.09
2023-03-13T05:04:55.450Z,1.11
2023-03-13T05:10:18.077Z,1.14
2023-03-13T05:15:40.375Z,1.19
2023-03-13T05:21:02.764Z,1.23
2023-03-13T05:26:25.007Z,1.26
2023-03-13T05:31:47.472Z,1.29
2023-03-13T05:37:09.897Z,1.34
2023-03-13T05:42:32.172Z,1.40
2023-03-13T05:47:55.812Z,1.52
2023-03-13T05:53:18.019Z,1.59
2023-03-13T05:58:40.410Z,1.64
2023-03-13T06:04:02.894Z,1.70
2023-03-13T06:09:25.476Z,1.79
2023-03-13T06:14:48.109Z,1.86
2023-03-13T06:20:10.681Z,1.97
2023-03-13T06:25:33.543Z,2.05
2023-03-13T06:30:56.656Z,2.16
2023-03-13T06:36:20.157Z,2.31
2023-03-13T06:41:43.027Z,2.51
2023-03-13T06:47:05.433Z,2.78
2023-03-13T06:52:41.426Z,3.02
2023-03-13T06:57:55.233Z,3.26
2023-03-13T07:03:19.048Z,3.51
2023-03-13T07:08:42.186Z,3.70
2023-03-13T07:14:16.417Z,3.84
2023-03-13T07:19:30.837Z,4.01
2023-03-13T07:24:53.912Z,4.24
2023-03-13T07:30:18.039Z,4.46
2023-03-13T07:35:41.265Z,4.68
2023-03-13T07:41:10.402Z,4.93
2023-03-13T07:46:34.966Z,5.11
2023-03-13T07:51:58.068Z,5.28
2023-03-13T07:57:21.684Z,5.44
2023-03-13T08:02:43.964Z,5.62
2023-03-13T08:08:06.981Z,5.78
2023-03-13T08:13:30.106Z,6.00
2023-03-13T08:19:07.094Z,6.14
2023-03-13T08:24:30.578Z,6.28
2023-03-13T08:29:53.496Z,6.42
2023-03-13T08:35:16.834Z,6.52
2023-03-13T08:40:40.091Z,6.50
2023-03-13T08:46:04.526Z,6.56
2023-03-13T08:51:34.333Z,6.40
2023-03-13T08:56:50.687Z,6.35
2023-03-13T09:02:14.836Z,6.33
2023-03-13T09:07:37.556Z,6.34
2023-03-13T09:12:59.758Z,6.29
2023-03-13T09:18:22.137Z,6.24
2023-03-13T09:23:45.173Z,6.27
2023-03-13T09:29:08.067Z,6.33
2023-03-13T09:34:32.176Z,6.38
2023-03-13T09:39:57.613Z,6.38
2023-03-13T09:45:34.856Z,6.32
2023-03-13T09:51:17.511Z,6.35
2023-03-13T09:56:53.508Z,6.37
2023-03-13T10:02:24.854Z,6.48
2023-03-13T10:07:58.717Z,6.71
2023-03-13T10:13:28.410Z,6.62
2023-03-13T10:18:52.092Z,6.79
2023-03-13T10:24:30.515Z,6.96
2023-03-13T10:30:02.807Z,7.18
2023-03-13T10:35:28.837Z,7.13
2023-03-13T10:40:54.126Z,7.22
2023-03-13T10:46:17.366Z,7.19
2023-03-13T10:51:48.459Z,7.30
2023-03-13T10:57:26.914Z,7.38
2023-03-13T11:02:53.906Z,7.38
2023-03-13T11:08:35.485Z,7.42
2023-03-13T11:13:59.817Z,7.46
2023-03-13T11:19:48.332Z,7.45
2023-03-13T11:25:24.843Z,7.40
2023-03-13T11:31:17.980Z,7.42
2023-03-13T11:37:15.178Z,7.56
2023-03-13T11:42:54.112Z,7.47
2023-03-13T11:48:41.147Z,7.56
2023-03-13T11:54:45.276Z,7.66
2023-03-13T12:00:29.266Z,7.59
2023-03-13T12:06:21.846Z,7.57
2023-03-13T12:11:58.685Z,7.59
2023-03-13T12:17:49.214Z,7.57
2023-03-13T12:23:42.753Z,7.48
2023-03-13T12:29:40.932Z,7.56
2023-03-13T12:35:38.367Z,7.45
2023-03-13T12:41:22.257Z,7.43
2023-03-13T12:47:17.723Z,7.59
2023-03-13T12:53:00.236Z,7.50
2023-03-13T12:58:56.241Z,7.54
2023-03-13T13:04:31.064Z,7.55
2023-03-13T13:10:07.096Z,7.58
2023-03-13T13:15:53.989Z,7.64
2023-03-13T13:21:31.486Z,7.81
2023-03-13T13:27:02.091Z,7.82
2023-03-13T13:32:29.271Z,7.84
2023-03-13T13:37:53.199Z,7.93
2023-03-13T13:43:20.123Z,7.94
2023-03-13T13:48:57.480Z,8.03
2023-03-13T13:54:53.864Z,8.13
2023-03-13T14:00:32.227Z,8.19
2023-03-13T14:05:58.353Z,8.13
2023-03-13T14:11:34.537Z,8.14
2023-03-13T14:17:02.992Z,8.24
2023-03-13T14:22:27.283Z,8.23
2023-03-13T14:27:51.652Z,8.26
2023-03-13T14:33:14.470Z,8.31
2023-03-13T14:38:41.856Z,8.35
2023-03-13T14:44:08.938Z,8.39
2023-03-13T14:49:37.296Z,8.41
2023-03-13T14:55:16.671Z,8.44
2023-03-13T15:00:54.833Z,8.44
2023-03-13T15:06:36.226Z,8.59
2023-03-13T15:12:12.088Z,8.56
2023-03-13T15:17:44.669Z,8.57
2023-03-13T15:23:06.992Z,8.60
2023-03-13T15:28:32.904Z,8.64
2023-03-13T15:33:57.742Z,8.71
2023-03-13T15:39:30.759Z,8.71
2023-03-13T15:44:52.961Z,8.77
2023-03-13T15:50:27.153Z,8.83
2023-03-13T15:55:49.693Z,8.84
2023-03-13T16:01:12.730Z,8.89
2023-03-13T16:06:38.958Z,8.91
2023-03-13T16:12:01.402Z,8.93
2023-03-13T16:17:32.509Z,8.98
2023-03-13T16:22:55.052Z,9.05
2023-03-13T16:28:19.257Z,9.16
2023-03-13T16:33:41.487Z,9.25
2023-03-13T16:39:05.942Z,9.26
2023-03-13T16:44:28.215Z,9.27
2023-03-13T16:49:51.081Z,9.28
2023-03-13T16:55:13.912Z,9.40
2023-03-13T17:00:40.058Z,9.40
2023-03-13T17:06:03.135Z,9.40
2023-03-13T17:11:27.655Z,9.45
2023-03-13T17:16:53.660Z,9.48
2023-03-13T17:22:18.097Z,9.48
2023-03-13T17:27:40.263Z,9.49
2023-03-13T17:33:03.271Z,9.53
2023-03-13T17:38:25.773Z,9.46
2023-03-13T17:43:49.028Z,9.49
2023-03-13T17:49:13.340Z,9.47
2023-03-13T17:54:35.848Z,9.46
2023-03-13T17:59:58.605Z,9.51
2023-03-13T18:05:21.121Z,9.51
2023-03-13T18:10:45.164Z,9.55
2023-03-13T18:16:07.462Z,9.61
2023-03-13T18:21:30.264Z,9.65
2023-03-13T18:26:55.763Z,9.74
2023-03-13T18:32:21.720Z,9.73
2023-03-13T18:37:46.280Z,9.64
2023-03-13T18:43:08.890Z,9.65
2023-03-13T18:48:31.216Z,9.71
2023-03-13T18:53:53.612Z,9.81
2023-03-13T18:59:21.184Z,9.73
2023-03-13T19:04:43.733Z,9.59
2023-03-13T19:10:08.880Z,9.36
2023-03-13T19:15:33.562Z,9.35
2023-03-13T19:20:56.268Z,9.42
2023-03-13T19:26:23.265Z,9.30
2023-03-13T19:31:45.841Z,9.18
2023-03-13T19:37:09.061Z,9.06
2023-03-13T19:42:31.271Z,9.00
2023-03-13T19:47:54.689Z,8.94
2023-03-13T19:53:17.158Z,8.91
2023-03-13T19:58:39.805Z,8.84
2023-03-13T20:04:02.407Z,8.71
2023-03-13T20:09:27.888Z,8.66
2023-03-13T20:14:50.809Z,8.80
2023-03-13T20:20:14.537Z,8.89
2023-03-13T20:25:37.077Z,8.95
2023-03-13T20:31:01.037Z,8.87
2023-03-13T20:36:30.408Z,8.89
2023-03-13T20:41:54.564Z,8.95
2023-03-13T20:47:17.181Z,8.91
2023-03-13T20:52:39.525Z,9.08
2023-03-13T20:58:01.769Z,9.18
2023-03-13T21:03:24.033Z,9.20
2023-03-13T21:08:46.887Z,9.46
2023-03-13T21:14:09.579Z,9.55
2023-03-13T21:19:32.227Z,9.61
2023-03-13T21:25:11.812Z,9.73
2023-03-13T21:30:35.576Z,9.62
2023-03-13T21:35:58.793Z,9.53
2023-03-13T21:41:25.400Z,9.57
2023-03-13T21:46:49.381Z,9.80
2023-03-13T21:52:11.753Z,10.11
2023-03-13T21:57:34.843Z,10.37
2023-03-13T22:02:57.597Z,10.54
2023-03-13T22:08:19.952Z,10.55
2023-03-13T22:13:42.409Z,10.51
2023-03-13T22:19:06.386Z,10.45
2023-03-13T22:24:29.129Z,10.26
2023-03-13T22:29:52.174Z,10.16
2023-03-13T22:35:14.965Z,10.10
2023-03-13T22:40:38.262Z,10.14
2023-03-13T22:46:00.930Z,10.14
2023-03-13T22:51:27.839Z,10.03
2023-03-13T22:56:50.230Z,10.12
2023-03-13T23:02:12.451Z,10.10
2023-03-13T23:07:37.147Z,10.32
2023-03-13T23:12:59.377Z,10.35
2023-03-13T23:18:21.574Z,10.62
2023-03-13T23:23:43.866Z,10.51
2023-03-13T23:29:06.861Z,10.40
2023-03-13T23:34:29.178Z,10.32
2023-03-13T23:39:51.884Z,10.33
2023-03-13T23:45:14.364Z,10.24
2023-03-13T23:50:36.871Z,10.07
2023-03-13T23:56:05.040Z,10.26
